sensor_id;sensor_type;location;lat;lon;timestamp;temperature;humidity
10278;DHT22;5184;51.376;7.148;2023-03-31T00:00:19;10.70;99.90
10278;DHT22;5184;51.376;7.148;2023-03-31T00:02:45;10.60;99.90
10278;DHT22;5184;51.376;7.148;2023-03-31T00:05:13;10.60;99.90
10278;DHT22;5184;51.376;7.148;2023-03-31T00:07:40;10.60;99.90
10278;DHT22;5184;51.376;7.148;2023-03-31T00:10:08;10.60;1.00
10278;DHT22;5184;51.376;7.148;2023-03-31T00:12:35;10.60;99.90
10278;DHT22;5184;51.376;7.148;2023-03-31T00:15:01;10.60;1.00
10278;DHT22;5184;51.376;7.148;2023-03-31T00:17:28;10.60;99.90
10278;DHT22;5184;51.376;7.148;2023-03-31T00:19:54;10.60;99.90
10278;DHT22;5184;51.376;7.148;2023-03-31T00:22:21;10.60;99.90
10278;DHT22;5184;51.376;7.148;2023-03-31T00:24:48;10.60;99.90
10278;DHT22;5184;51.376;7.148;2023-03-31T00:27:15;10.60;1.00
10278;DHT22;5184;51.376;7.148;2023-03-31T00:29:42;10.60;1.00
10278;DHT22;5184;51.376;7.148;2023-03-31T00:32:10;10.60;1.00
10278;DHT22;5184;51.376;7.148;2023-03-31T00:34:36;10.50;1.00
10278;DHT22;5184;51.376;7.148;2023-03-31T00:37:03;10.50;1.00
10278;DHT22;5184;51.376;7.148;2023-03-31T00:39:29;10.50;8.80
10278;DHT22;5184;51.376;7.148;2023-03-31T00:41:57;10.50;1.00
10278;DHT22;5184;51.376;7.148;2023-03-31T00:44:23;10.50;1.00
10278;DHT22;5184;51.376;7.148;2023-03-31T00:46:53;10.50;1.00
10278;DHT22;5184;51.376;7.148;2023-03-31T00:49:30;10.60;1.00
10278;DHT22;5184;51.376;7.148;2023-03-31T00:51:59;10.60;1.00
10278;DHT22;5184;51.376;7.148;2023-03-31T00:54:24;10.70;99.90
10278;DHT22;5184;51.376;7.148;2023-03-31T00:56:52;10.70;1.00
10278;DHT22;5184;51.376;7.148;2023-03-31T00:59:18;10.60;1.00
10278;DHT22;5184;51.376;7.148;2023-03-31T01:01:45;10.60;99.90
10278;DHT22;5184;51.376;7.148;2023-03-31T01:04:12;10.60;47.00
10278;DHT22;5184;51.376;7.148;2023-03-31T01:06:39;10.60;99.90
10278;DHT22;5184;51.376;7.148;2023-03-31T01:09:05;10.50;1.00
10278;DHT22;5184;51.376;7.148;2023-03-31T01:11:31;10.40;99.90
10278;DHT22;5184;51.376;7.148;2023-03-31T01:13:58;10.30;1.00
10278;DHT22;5184;51.376;7.148;2023-03-31T01:16:24;10.30;55.00
10278;DHT22;5184;51.376;7.148;2023-03-31T01:18:52;10.20;99.90
10278;DHT22;5184;51.376;7.148;2023-03-31T01:21:34;10.20;99.90
10278;DHT22;5184;51.376;7.148;2023-03-31T01:24:09;10.10;99.90
10278;DHT22;5184;51.376;7.148;2023-03-31T01:27:55;10.10;99.90
10278;DHT22;5184;51.376;7.148;2023-03-31T01:29:37;10.10;99.90
10278;DHT22;5184;51.376;7.148;2023-03-31T01:32:10;10.10;99.90
10278;DHT22;5184;51.376;7.148;2023-03-31T01:37:31;10.00;99.90
10278;DHT22;5184;51.376;7.148;2023-03-31T01:42:49;10.00;99.90
10278;DHT22;5184;51.376;7.148;2023-03-31T01:45:25;10.00;99.90
10278;DHT22;5184;51.376;7.148;2023-03-31T01:48:05;9.90;99.90
10278;DHT22;5184;51.376;7.148;2023-03-31T01:50:29;9.80;99.90
10278;DHT22;5184;51.376;7.148;2023-03-31T01:53:01;10.00;99.90
10278;DHT22;5184;51.376;7.148;2023-03-31T01:55:33;10.00;99.90
10278;DHT22;5184;51.376;7.148;2023-03-31T01:57:58;10.00;99.90
10278;DHT22;5184;51.376;7.148;2023-03-31T02:00:24;10.00;99.90
10278;DHT22;5184;51.376;7.148;2023-03-31T02:05:37;10.00;99.90
10278;DHT22;5184;51.376;7.148;2023-03-31T02:08:08;10.00;99.90
10278;DHT22;5184;51.376;7.148;2023-03-31T02:10:33;9.90;99.90
10278;DHT22;5184;51.376;7.148;2023-03-31T02:13:00;10.00;99.90
10278;DHT22;5184;51.376;7.148;2023-03-31T02:15:29;10.00;99.90
10278;DHT22;5184;51.376;7.148;2023-03-31T02:17:55;10.00;99.90
10278;DHT22;5184;51.376;7.148;2023-03-31T02:20:22;10.00;99.90
10278;DHT22;5184;51.376;7.148;2023-03-31T02:22:51;10.00;99.90
10278;DHT22;5184;51.376;7.148;2023-03-31T02:25:17;10.00;99.90
10278;DHT22;5184;51.376;7.148;2023-03-31T02:27:43;10.00;99.90
10278;DHT22;5184;51.376;7.148;2023-03-31T02:30:10;10.00;99.90
10278;DHT22;5184;51.376;7.148;2023-03-31T02:32:38;10.10;99.90
10278;DHT22;5184;51.376;7.148;2023-03-31T02:35:04;10.10;99.90
10278;DHT22;5184;51.376;7.148;2023-03-31T02:37:30;10.10;99.90
10278;DHT22;5184;51.376;7.148;2023-03-31T02:39:59;10.20;99.90
10278;DHT22;5184;51.376;7.148;2023-03-31T02:42:25;10.10;99.90
10278;DHT22;5184;51.376;7.148;2023-03-31T02:44:53;10.10;99.90
10278;DHT22;5184;51.376;7.148;2023-03-31T02:47:19;10.70;99.90
10278;DHT22;5184;51.376;7.148;2023-03-31T02:49:47;10.10;99.90
10278;DHT22;5184;51.376;7.148;2023-03-31T02:58:05;10.10;99.90
10278;DHT22;5184;51.376;7.148;2023-03-31T03:00:39;10.00;99.90
10278;DHT22;5184;51.376;7.148;2023-03-31T03:03:10;10.00;99.90
10278;DHT22;5184;51.376;7.148;2023-03-31T03:09:32;10.00;99.90
10278;DHT22;5184;51.376;7.148;2023-03-31T03:11:15;10.00;99.90
10278;DHT22;5184;51.376;7.148;2023-03-31T03:13:54;10.00;99.90
10278;DHT22;5184;51.376;7.148;2023-03-31T03:16:25;9.90;99.90
10278;DHT22;5184;51.376;7.148;2023-03-31T03:18:57;10.00;99.90
10278;DHT22;5184;51.376;7.148;2023-03-31T03:21:23;10.00;99.90
10278;DHT22;5184;51.376;7.148;2023-03-31T03:23:50;10.00;99.90
10278;DHT22;5184;51.376;7.148;2023-03-31T03:26:17;9.90;99.90
10278;DHT22;5184;51.376;7.148;2023-03-31T03:28:43;10.00;99.90
10278;DHT22;5184;51.376;7.148;2023-03-31T03:31:10;10.00;99.90
10278;DHT22;5184;51.376;7.148;2023-03-31T03:33:36;10.00;99.90
10278;DHT22;5184;51.376;7.148;2023-03-31T03:36:03;9.90;99.90
10278;DHT22;5184;51.376;7.148;2023-03-31T03:38:30;9.90;99.90
10278;DHT22;5184;51.376;7.148;2023-03-31T03:40:57;9.90;99.90
10278;DHT22;5184;51.376;7.148;2023-03-31T03:43:24;9.90;99.90
10278;DHT22;5184;51.376;7.148;2023-03-31T03:45:51;9.90;99.90
10278;DHT22;5184;51.376;7.148;2023-03-31T03:48:17;9.90;99.90
10278;DHT22;5184;51.376;7.148;2023-03-31T03:50:45;9.90;99.90
10278;DHT22;5184;51.376;7.148;2023-03-31T03:53:12;9.90;99.90
10278;DHT22;5184;51.376;7.148;2023-03-31T03:55:38;9.90;99.90
10278;DHT22;5184;51.376;7.148;2023-03-31T03:58:04;9.90;99.90
10278;DHT22;5184;51.376;7.148;2023-03-31T04:00:32;9.90;99.90
10278;DHT22;5184;51.376;7.148;2023-03-31T04:02:59;10.00;99.90
10278;DHT22;5184;51.376;7.148;2023-03-31T04:05:26;10.00;99.90
10278;DHT22;5184;51.376;7.148;2023-03-31T04:07:54;10.00;99.90
10278;DHT22;5184;51.376;7.148;2023-03-31T04:10:20;10.00;99.90
10278;DHT22;5184;51.376;7.148;2023-03-31T04:12:47;10.00;99.90
10278;DHT22;5184;51.376;7.148;2023-03-31T04:15:14;10.00;99.90
10278;DHT22;5184;51.376;7.148;2023-03-31T04:17:40;10.00;99.90
10278;DHT22;5184;51.376;7.148;2023-03-31T04:20:08;10.00;99.90
10278;DHT22;5184;51.376;7.148;2023-03-31T04:22:35;10.00;99.90
10278;DHT22;5184;51.376;7.148;2023-03-31T04:25:02;10.00;99.90
10278;DHT22;5184;51.376;7.148;2023-03-31T04:27:27;9.90;99.90
10278;DHT22;5184;51.376;7.148;2023-03-31T04:29:54;10.00;99.90
10278;DHT22;5184;51.376;7.148;2023-03-31T04:32:21;10.00;99.90
10278;DHT22;5184;51.376;7.148;2023-03-31T04:34:48;10.00;99.90
10278;DHT22;5184;51.376;7.148;2023-03-31T04:37:18;10.00;99.90
10278;DHT22;5184;51.376;7.148;2023-03-31T04:39:44;10.00;99.90
10278;DHT22;5184;51.376;7.148;2023-03-31T04:42:11;10.00;99.90
10278;DHT22;5184;51.376;7.148;2023-03-31T04:44:38;9.50;99.90
10278;DHT22;5184;51.376;7.148;2023-03-31T04:47:05;10.00;99.90
10278;DHT22;5184;51.376;7.148;2023-03-31T04:49:32;10.00;99.90
10278;DHT22;5184;51.376;7.148;2023-03-31T04:51:58;10.00;99.90
10278;DHT22;5184;51.376;7.148;2023-03-31T04:54:25;10.10;99.90
10278;DHT22;5184;51.376;7.148;2023-03-31T04:56:51;10.00;99.90
10278;DHT22;5184;51.376;7.148;2023-03-31T04:59:18;10.00;99.90
10278;DHT22;5184;51.376;7.148;2023-03-31T05:01:45;9.90;99.90
10278;DHT22;5184;51.376;7.148;2023-03-31T05:04:13;9.80;99.90
10278;DHT22;5184;51.376;7.148;2023-03-31T05:06:40;9.80;99.90
10278;DHT22;5184;51.376;7.148;2023-03-31T05:09:07;9.80;99.90
10278;DHT22;5184;51.376;7.148;2023-03-31T05:11:35;9.80;99.90
10278;DHT22;5184;51.376;7.148;2023-03-31T05:14:02;9.70;99.90
10278;DHT22;5184;51.376;7.148;2023-03-31T05:16:29;9.70;99.90
10278;DHT22;5184;51.376;7.148;2023-03-31T05:18:56;9.70;99.90
10278;DHT22;5184;51.376;7.148;2023-03-31T05:21:23;9.70;99.90
10278;DHT22;5184;51.376;7.148;2023-03-31T05:23:49;9.70;99.90
10278;DHT22;5184;51.376;7.148;2023-03-31T05:26:16;9.70;99.90
10278;DHT22;5184;51.376;7.148;2023-03-31T05:28:42;9.70;99.90
10278;DHT22;5184;51.376;7.148;2023-03-31T05:31:09;9.70;99.90
10278;DHT22;5184;51.376;7.148;2023-03-31T05:33:36;9.70;99.90
10278;DHT22;5184;51.376;7.148;2023-03-31T05:36:03;9.60;99.90
10278;DHT22;5184;51.376;7.148;2023-03-31T05:38:30;9.60;99.90
10278;DHT22;5184;51.376;7.148;2023-03-31T05:40:56;9.60;99.90
10278;DHT22;5184;51.376;7.148;2023-03-31T05:43:23;9.70;99.90
10278;DHT22;5184;51.376;7.148;2023-03-31T05:45:50;9.70;99.90
10278;DHT22;5184;51.376;7.148;2023-03-31T05:48:18;9.70;99.90
10278;DHT22;5184;51.376;7.148;2023-03-31T05:50:45;9.70;99.90
10278;DHT22;5184;51.376;7.148;2023-03-31T05:53:12;9.80;99.90
10278;DHT22;5184;51.376;7.148;2023-03-31T05:55:40;9.80;99.90
10278;DHT22;5184;51.376;7.148;2023-03-31T05:58:07;9.80;99.90
10278;DHT22;5184;51.376;7.148;2023-03-31T06:00:35;9.80;99.90
10278;DHT22;5184;51.376;7.148;2023-03-31T06:03:02;9.80;99.90
10278;DHT22;5184;51.376;7.148;2023-03-31T06:05:29;9.80;99.90
10278;DHT22;5184;51.376;7.148;2023-03-31T06:07:57;9.90;99.90
10278;DHT22;5184;51.376;7.148;2023-03-31T06:10:23;9.80;99.90
10278;DHT22;5184;51.376;7.148;2023-03-31T06:12:50;9.90;99.90
10278;DHT22;5184;51.376;7.148;2023-03-31T06:15:16;9.90;99.90
10278;DHT22;5184;51.376;7.148;2023-03-31T06:17:43;9.90;99.90
10278;DHT22;5184;51.376;7.148;2023-03-31T06:20:10;9.90;99.90
10278;DHT22;5184;51.376;7.148;2023-03-31T06:53:08;9.70;99.90
10278;DHT22;5184;51.376;7.148;2023-03-31T06:55:36;9.70;99.90
10278;DHT22;5184;51.376;7.148;2023-03-31T06:58:02;9.60;99.90
10278;DHT22;5184;51.376;7.148;2023-03-31T07:00:28;9.50;99.90
10278;DHT22;5184;51.376;7.148;2023-03-31T07:02:55;9.50;99.90
10278;DHT22;5184;51.376;7.148;2023-03-31T07:05:21;9.50;99.90
10278;DHT22;5184;51.376;7.148;2023-03-31T07:07:49;9.50;99.90
10278;DHT22;5184;51.376;7.148;2023-03-31T07:10:17;9.50;99.90
10278;DHT22;5184;51.376;7.148;2023-03-31T07:12:44;9.40;99.90
10278;DHT22;5184;51.376;7.148;2023-03-31T07:15:11;9.40;99.90
10278;DHT22;5184;51.376;7.148;2023-03-31T07:17:39;9.40;99.90
10278;DHT22;5184;51.376;7.148;2023-03-31T07:20:08;9.40;99.90
10278;DHT22;5184;51.376;7.148;2023-03-31T07:22:35;9.40;99.90
10278;DHT22;5184;51.376;7.148;2023-03-31T07:25:03;9.40;99.90
10278;DHT22;5184;51.376;7.148;2023-03-31T07:27:29;9.40;99.90
10278;DHT22;5184;51.376;7.148;2023-03-31T07:29:56;9.40;99.90
10278;DHT22;5184;51.376;7.148;2023-03-31T07:32:23;9.40;99.90
10278;DHT22;5184;51.376;7.148;2023-03-31T07:34:49;9.50;99.90
10278;DHT22;5184;51.376;7.148;2023-03-31T07:37:16;9.50;99.90
10278;DHT22;5184;51.376;7.148;2023-03-31T07:39:43;9.50;99.90
10278;DHT22;5184;51.376;7.148;2023-03-31T07:42:11;9.50;99.90
10278;DHT22;5184;51.376;7.148;2023-03-31T07:44:38;9.50;99.90
10278;DHT22;5184;51.376;7.148;2023-03-31T07:47:05;9.50;99.90
10278;DHT22;5184;51.376;7.148;2023-03-31T07:49:33;9.50;99.90
10278;DHT22;5184;51.376;7.148;2023-03-31T07:52:00;9.60;99.90
10278;DHT22;5184;51.376;7.148;2023-03-31T07:54:27;9.60;99.90
10278;DHT22;5184;51.376;7.148;2023-03-31T07:56:55;9.60;99.90
10278;DHT22;5184;51.376;7.148;2023-03-31T07:59:21;9.60;99.90
10278;DHT22;5184;51.376;7.148;2023-03-31T08:01:48;9.60;99.90
10278;DHT22;5184;51.376;7.148;2023-03-31T08:04:14;9.70;99.90
10278;DHT22;5184;51.376;7.148;2023-03-31T08:06:41;9.70;99.90
10278;DHT22;5184;51.376;7.148;2023-03-31T08:09:08;9.80;99.90
10278;DHT22;5184;51.376;7.148;2023-03-31T08:11:34;9.90;99.90
10278;DHT22;5184;51.376;7.148;2023-03-31T08:14:01;10.00;99.90
10278;DHT22;5184;51.376;7.148;2023-03-31T08:16:28;10.20;99.90
10278;DHT22;5184;51.376;7.148;2023-03-31T08:18:56;10.30;33.00
10278;DHT22;5184;51.376;7.148;2023-03-31T08:21:23;10.30;1.00
10278;DHT22;5184;51.376;7.148;2023-03-31T08:23:52;10.40;1.00
10278;DHT22;5184;51.376;7.148;2023-03-31T08:26:17;10.40;1.00
10278;DHT22;5184;51.376;7.148;2023-03-31T08:28:44;10.40;1.00
10278;DHT22;5184;51.376;7.148;2023-03-31T08:31:10;10.40;1.00
10278;DHT22;5184;51.376;7.148;2023-03-31T08:33:37;10.40;1.00
10278;DHT22;5184;51.376;7.148;2023-03-31T08:36:04;10.50;1.00
10278;DHT22;5184;51.376;7.148;2023-03-31T08:38:30;10.50;1.00
10278;DHT22;5184;51.376;7.148;2023-03-31T08:40:58;10.60;1.00
10278;DHT22;5184;51.376;7.148;2023-03-31T08:43:26;10.60;1.00
10278;DHT22;5184;51.376;7.148;2023-03-31T08:45:52;10.50;1.00
10278;DHT22;5184;51.376;7.148;2023-03-31T08:48:31;10.50;90.30
10278;DHT22;5184;51.376;7.148;2023-03-31T08:51:06;10.50;89.40
10278;DHT22;5184;51.376;7.148;2023-03-31T08:53:34;10.50;71.30
10278;DHT22;5184;51.376;7.148;2023-03-31T08:55:59;10.50;99.90
10278;DHT22;5184;51.376;7.148;2023-03-31T08:58:38;10.70;99.90
10278;DHT22;5184;51.376;7.148;2023-03-31T09:01:18;10.70;99.90
10278;DHT22;5184;51.376;7.148;2023-03-31T09:06:35;11.00;99.90
10278;DHT22;5184;51.376;7.148;2023-03-31T09:08:59;11.00;99.90
10278;DHT22;5184;51.376;7.148;2023-03-31T09:11:37;11.20;99.90
10278;DHT22;5184;51.376;7.148;2023-03-31T09:14:17;11.30;1.00
10278;DHT22;5184;51.376;7.148;2023-03-31T09:16:51;11.30;1.00
10278;DHT22;5184;51.376;7.148;2023-03-31T09:19:17;11.30;1.00
10278;DHT22;5184;51.376;7.148;2023-03-31T09:21:44;11.40;1.00
10278;DHT22;5184;51.376;7.148;2023-03-31T09:24:17;11.70;1.00
10278;DHT22;5184;51.376;7.148;2023-03-31T09:26:50;11.80;1.00
10278;DHT22;5184;51.376;7.148;2023-03-31T09:29:18;11.90;1.00
10278;DHT22;5184;51.376;7.148;2023-03-31T09:31:42;11.90;1.00
10278;DHT22;5184;51.376;7.148;2023-03-31T09:34:13;12.10;99.90
10278;DHT22;5184;51.376;7.148;2023-03-31T09:36:38;12.00;99.90
10278;DHT22;5184;51.376;7.148;2023-03-31T09:39:05;12.00;99.90
10278;DHT22;5184;51.376;7.148;2023-03-31T09:41:31;12.20;99.90
10278;DHT22;5184;51.376;7.148;2023-03-31T09:43:58;12.30;46.00
10278;DHT22;5184;51.376;7.148;2023-03-31T09:46:34;12.00;98.00
10278;DHT22;5184;51.376;7.148;2023-03-31T09:49:13;12.00;95.20
10278;DHT22;5184;51.376;7.148;2023-03-31T09:51:39;11.90;99.90
10278;DHT22;5184;51.376;7.148;2023-03-31T09:54:12;11.80;99.90
10278;DHT22;5184;51.376;7.148;2023-03-31T09:56:47;11.80;1.00
10278;DHT22;5184;51.376;7.148;2023-03-31T09:59:15;11.80;1.00
10278;DHT22;5184;51.376;7.148;2023-03-31T10:01:40;11.80;1.00
10278;DHT22;5184;51.376;7.148;2023-03-31T10:04:07;11.90;1.00
10278;DHT22;5184;51.376;7.148;2023-03-31T10:06:38;11.90;1.00
10278;DHT22;5184;51.376;7.148;2023-03-31T10:09:02;12.00;1.00
10278;DHT22;5184;51.376;7.148;2023-03-31T10:11:29;12.20;1.00
10278;DHT22;5184;51.376;7.148;2023-03-31T10:14:04;12.40;99.90
10278;DHT22;5184;51.376;7.148;2023-03-31T10:16:31;12.40;99.90
10278;DHT22;5184;51.376;7.148;2023-03-31T10:19:11;12.50;99.90
10278;DHT22;5184;51.376;7.148;2023-03-31T10:21:38;12.60;17.60
10278;DHT22;5184;51.376;7.148;2023-03-31T10:24:07;12.80;1.00
10278;DHT22;5184;51.376;7.148;2023-03-31T10:26:33;12.70;99.90
10278;DHT22;5184;51.376;7.148;2023-03-31T10:29:00;12.60;99.90
10278;DHT22;5184;51.376;7.148;2023-03-31T10:31:33;12.30;10.80
10278;DHT22;5184;51.376;7.148;2023-03-31T10:34:00;12.20;98.10
10278;DHT22;5184;51.376;7.148;2023-03-31T10:36:26;12.10;75.30
10278;DHT22;5184;51.376;7.148;2023-03-31T10:38:52;12.10;1.00
10278;DHT22;5184;51.376;7.148;2023-03-31T10:41:28;12.30;99.90
10278;DHT22;5184;51.376;7.148;2023-03-31T10:43:55;12.50;1.00
10278;DHT22;5184;51.376;7.148;2023-03-31T10:46:39;12.80;99.90
10278;DHT22;5184;51.376;7.148;2023-03-31T10:49:14;13.20;99.90
10278;DHT22;5184;51.376;7.148;2023-03-31T10:51:47;13.20;99.90
10278;DHT22;5184;51.376;7.148;2023-03-31T10:54:07;13.50;99.90
10278;DHT22;5184;51.376;7.148;2023-03-31T10:56:40;13.70;1.00
10278;DHT22;5184;51.376;7.148;2023-03-31T10:59:13;14.10;1.00
10278;DHT22;5184;51.376;7.148;2023-03-31T11:01:56;14.30;99.90
10278;DHT22;5184;51.376;7.148;2023-03-31T11:04:48;14.20;99.90
10278;DHT22;5184;51.376;7.148;2023-03-31T11:07:18;14.20;1.00
10278;DHT22;5184;51.376;7.148;2023-03-31T11:10:02;14.20;99.90
10278;DHT22;5184;51.376;7.148;2023-03-31T11:12:30;14.40;11.00
10278;DHT22;5184;51.376;7.148;2023-03-31T11:15:17;14.60;99.90
10278;DHT22;5184;51.376;7.148;2023-03-31T11:18:25;14.40;7.40
10278;DHT22;5184;51.376;7.148;2023-03-31T11:20:33;14.00;99.90
10278;DHT22;5184;51.376;7.148;2023-03-31T11:23:06;11.80;1.00
10278;DHT22;5184;51.376;7.148;2023-03-31T11:25:33;11.80;1.00
10278;DHT22;5184;51.376;7.148;2023-03-31T11:28:18;10.50;99.90
10278;DHT22;5184;51.376;7.148;2023-03-31T11:30:47;10.30;99.90
10278;DHT22;5184;51.376;7.148;2023-03-31T11:41:18;10.40;1.00
10278;DHT22;5184;51.376;7.148;2023-03-31T11:43:44;10.60;7.40
10278;DHT22;5184;51.376;7.148;2023-03-31T11:46:14;10.90;1.00
10278;DHT22;5184;51.376;7.148;2023-03-31T11:48:57;11.10;1.00
10278;DHT22;5184;51.376;7.148;2023-03-31T11:51:25;11.30;1.00
10278;DHT22;5184;51.376;7.148;2023-03-31T11:53:52;11.50;1.00
10278;DHT22;5184;51.376;7.148;2023-03-31T11:56:19;11.80;99.90
10278;DHT22;5184;51.376;7.148;2023-03-31T11:58:48;11.80;99.90
10278;DHT22;5184;51.376;7.148;2023-03-31T12:01:16;11.90;1.00
10278;DHT22;5184;51.376;7.148;2023-03-31T12:03:43;12.00;99.90
10278;DHT22;5184;51.376;7.148;2023-03-31T12:06:11;12.00;99.90
10278;DHT22;5184;51.376;7.148;2023-03-31T12:08:40;11.40;99.90
10278;DHT22;5184;51.376;7.148;2023-03-31T12:11:10;12.00;99.90
10278;DHT22;5184;51.376;7.148;2023-03-31T12:14:45;12.00;1.00
10278;DHT22;5184;51.376;7.148;2023-03-31T12:16:22;12.00;1.00
10278;DHT22;5184;51.376;7.148;2023-03-31T12:19:07;12.10;3.90
10278;DHT22;5184;51.376;7.148;2023-03-31T12:21:33;12.20;1.00
10278;DHT22;5184;51.376;7.148;2023-03-31T12:24:01;12.20;99.90
10278;DHT22;5184;51.376;7.148;2023-03-31T12:26:36;12.20;99.90
10278;DHT22;5184;51.376;7.148;2023-03-31T12:29:03;12.40;33.30
10278;DHT22;5184;51.376;7.148;2023-03-31T12:31:28;12.50;99.90
10278;DHT22;5184;51.376;7.148;2023-03-31T12:33:57;12.50;1.00
10278;DHT22;5184;51.376;7.148;2023-03-31T12:36:32;12.50;99.90
10278;DHT22;5184;51.376;7.148;2023-03-31T12:39:13;12.40;99.90
10278;DHT22;5184;51.376;7.148;2023-03-31T12:47:34;12.30;1.00
10278;DHT22;5184;51.376;7.148;2023-03-31T12:50:18;12.20;1.00
10278;DHT22;5184;51.376;7.148;2023-03-31T12:52:53;12.20;1.00
10278;DHT22;5184;51.376;7.148;2023-03-31T12:55:29;12.10;99.90
10278;DHT22;5184;51.376;7.148;2023-03-31T12:57:52;12.10;1.00
10278;DHT22;5184;51.376;7.148;2023-03-31T13:00:25;12.20;54.20
10278;DHT22;5184;51.376;7.148;2023-03-31T13:03:34;12.20;99.90
10278;DHT22;5184;51.376;7.148;2023-03-31T13:07:56;12.00;1.00
10278;DHT22;5184;51.376;7.148;2023-03-31T13:10:23;12.20;99.90
10278;DHT22;5184;51.376;7.148;2023-03-31T13:13:13;12.60;99.90
10278;DHT22;5184;51.376;7.148;2023-03-31T13:15:39;12.80;1.00
10278;DHT22;5184;51.376;7.148;2023-03-31T13:18:06;13.00;15.70
10278;DHT22;5184;51.376;7.148;2023-03-31T13:20:35;13.00;99.90
10278;DHT22;5184;51.376;7.148;2023-03-31T13:23:03;13.00;1.00
10278;DHT22;5184;51.376;7.148;2023-03-31T13:25:33;13.00;99.90
10278;DHT22;5184;51.376;7.148;2023-03-31T13:28:15;13.00;99.90
10278;DHT22;5184;51.376;7.148;2023-03-31T13:30:43;12.90;99.90
10278;DHT22;5184;51.376;7.148;2023-03-31T13:33:23;13.00;99.90
10278;DHT22;5184;51.376;7.148;2023-03-31T13:36:00;12.90;1.00
10278;DHT22;5184;51.376;7.148;2023-03-31T13:38:45;12.80;99.90
10278;DHT22;5184;51.376;7.148;2023-03-31T13:41:20;12.90;99.90
10278;DHT22;5184;51.376;7.148;2023-03-31T13:43:52;13.20;99.90
10278;DHT22;5184;51.376;7.148;2023-03-31T13:46:25;13.20;99.90
10278;DHT22;5184;51.376;7.148;2023-03-31T13:49:10;13.30;99.90
10278;DHT22;5184;51.376;7.148;2023-03-31T13:51:50;13.20;99.90
10278;DHT22;5184;51.376;7.148;2023-03-31T13:59:31;13.20;1.00
10278;DHT22;5184;51.376;7.148;2023-03-31T14:02:19;13.10;99.90
10278;DHT22;5184;51.376;7.148;2023-03-31T14:07:21;13.00;99.90
10278;DHT22;5184;51.376;7.148;2023-03-31T14:09:48;12.90;37.70
10278;DHT22;5184;51.376;7.148;2023-03-31T14:12:30;12.90;27.40
10278;DHT22;5184;51.376;7.148;2023-03-31T14:14:55;13.00;1.00
10278;DHT22;5184;51.376;7.148;2023-03-31T14:17:26;13.10;1.00
10278;DHT22;5184;51.376;7.148;2023-03-31T14:20:17;13.30;99.90
10278;DHT22;5184;51.376;7.148;2023-03-31T14:23:25;13.60;99.90
10278;DHT22;5184;51.376;7.148;2023-03-31T14:26:50;13.60;99.90
10278;DHT22;5184;51.376;7.148;2023-03-31T14:28:38;13.60;99.90
10278;DHT22;5184;51.376;7.148;2023-03-31T14:31:23;13.70;99.90
10278;DHT22;5184;51.376;7.148;2023-03-31T14:36:51;13.60;1.00
10278;DHT22;5184;51.376;7.148;2023-03-31T14:39:15;13.60;1.00
10278;DHT22;5184;51.376;7.148;2023-03-31T14:41:40;13.60;1.00
10278;DHT22;5184;51.376;7.148;2023-03-31T14:44:10;13.60;1.00
10278;DHT22;5184;51.376;7.148;2023-03-31T14:46:36;13.80;99.90
10278;DHT22;5184;51.376;7.148;2023-03-31T14:49:14;13.80;99.90
10278;DHT22;5184;51.376;7.148;2023-03-31T14:51:43;13.80;99.90
10278;DHT22;5184;51.376;7.148;2023-03-31T14:54:14;13.60;1.00
10278;DHT22;5184;51.376;7.148;2023-03-31T14:56:39;13.60;1.00
10278;DHT22;5184;51.376;7.148;2023-03-31T14:59:05;13.50;1.00
10278;DHT22;5184;51.376;7.148;2023-03-31T15:01:32;13.40;1.00
10278;DHT22;5184;51.376;7.148;2023-03-31T15:04:04;13.20;58.60
10278;DHT22;5184;51.376;7.148;2023-03-31T15:06:28;13.20;56.10
10278;DHT22;5184;51.376;7.148;2023-03-31T15:08:55;13.30;96.30
10278;DHT22;5184;51.376;7.148;2023-03-31T15:11:21;13.20;99.90
10278;DHT22;5184;51.376;7.148;2023-03-31T15:13:49;13.20;99.90
10278;DHT22;5184;51.376;7.148;2023-03-31T15:16:36;13.10;1.00
10278;DHT22;5184;51.376;7.148;2023-03-31T15:19:04;13.00;1.00
10278;DHT22;5184;51.376;7.148;2023-03-31T15:21:30;12.90;99.90
10278;DHT22;5184;51.376;7.148;2023-03-31T15:23:55;12.70;99.90
10278;DHT22;5184;51.376;7.148;2023-03-31T15:26:25;12.30;63.00
10278;DHT22;5184;51.376;7.148;2023-03-31T15:28:53;12.30;50.80
10278;DHT22;5184;51.376;7.148;2023-03-31T15:31:18;11.90;99.90
10278;DHT22;5184;51.376;7.148;2023-03-31T15:33:45;11.50;1.00
10278;DHT22;5184;51.376;7.148;2023-03-31T15:36:12;11.20;1.00
10278;DHT22;5184;51.376;7.148;2023-03-31T15:38:38;11.00;1.00
10278;DHT22;5184;51.376;7.148;2023-03-31T15:41:10;10.80;1.00
10278;DHT22;5184;51.376;7.148;2023-03-31T15:43:44;10.60;1.00
10278;DHT22;5184;51.376;7.148;2023-03-31T15:46:13;10.60;99.90
10278;DHT22;5184;51.376;7.148;2023-03-31T15:48:47;10.70;99.90
10278;DHT22;5184;51.376;7.148;2023-03-31T15:51:06;10.70;99.90
10278;DHT22;5184;51.376;7.148;2023-03-31T15:53:36;10.70;99.90
10278;DHT22;5184;51.376;7.148;2023-03-31T15:56:03;10.80;99.90
10278;DHT22;5184;51.376;7.148;2023-03-31T16:01:08;10.80;99.90
10278;DHT22;5184;51.376;7.148;2023-03-31T16:03:34;10.90;99.90
10278;DHT22;5184;51.376;7.148;2023-03-31T16:06:02;10.80;1.00
10278;DHT22;5184;51.376;7.148;2023-03-31T16:11:37;10.80;1.00
10278;DHT22;5184;51.376;7.148;2023-03-31T16:14:04;10.90;99.90
10278;DHT22;5184;51.376;7.148;2023-03-31T16:16:29;10.90;20.30
10278;DHT22;5184;51.376;7.148;2023-03-31T16:19:04;11.00;1.00
10278;DHT22;5184;51.376;7.148;2023-03-31T16:21:32;11.00;1.00
10278;DHT22;5184;51.376;7.148;2023-03-31T16:23:56;11.10;99.90
10278;DHT22;5184;51.376;7.148;2023-03-31T16:26:23;10.40;99.90
10278;DHT22;5184;51.376;7.148;2023-03-31T16:28:50;11.10;1.00
10278;DHT22;5184;51.376;7.148;2023-03-31T16:31:37;11.20;99.90
10278;DHT22;5184;51.376;7.148;2023-03-31T16:34:04;11.20;99.90
10278;DHT22;5184;51.376;7.148;2023-03-31T16:36:29;11.20;1.00
10278;DHT22;5184;51.376;7.148;2023-03-31T16:38:56;11.30;99.90
10278;DHT22;5184;51.376;7.148;2023-03-31T16:41:23;11.30;1.00
10278;DHT22;5184;51.376;7.148;2023-03-31T16:43:49;11.30;1.00
10278;DHT22;5184;51.376;7.148;2023-03-31T16:46:18;11.20;38.60
10278;DHT22;5184;51.376;7.148;2023-03-31T16:48:45;11.10;99.90
10278;DHT22;5184;51.376;7.148;2023-03-31T16:51:12;11.10;99.90
10278;DHT22;5184;51.376;7.148;2023-03-31T16:53:38;11.10;99.90
10278;DHT22;5184;51.376;7.148;2023-03-31T16:56:06;11.10;99.90
10278;DHT22;5184;51.376;7.148;2023-03-31T16:58:33;11.00;1.00
10278;DHT22;5184;51.376;7.148;2023-03-31T17:01:00;11.00;1.00
10278;DHT22;5184;51.376;7.148;2023-03-31T17:03:27;10.90;1.00
10278;DHT22;5184;51.376;7.148;2023-03-31T17:05:55;10.90;1.00
10278;DHT22;5184;51.376;7.148;2023-03-31T17:08:24;10.80;1.00
10278;DHT22;5184;51.376;7.148;2023-03-31T17:10:50;10.80;1.00
10278;DHT22;5184;51.376;7.148;2023-03-31T17:13:16;10.80;1.00
10278;DHT22;5184;51.376;7.148;2023-03-31T17:15:43;10.80;1.00
10278;DHT22;5184;51.376;7.148;2023-03-31T17:18:09;10.80;1.00
10278;DHT22;5184;51.376;7.148;2023-03-31T17:20:36;10.80;1.00
10278;DHT22;5184;51.376;7.148;2023-03-31T17:23:03;10.80;1.00
10278;DHT22;5184;51.376;7.148;2023-03-31T17:25:29;10.70;1.00
10278;DHT22;5184;51.376;7.148;2023-03-31T17:27:56;10.70;1.00
10278;DHT22;5184;51.376;7.148;2023-03-31T17:30:23;10.70;1.00